Time;durP1;ratioP1;P1;durP2;ratioP2;P2;SDS_P1;SDS_P2;PMS_P1;PMS_P2;Temp;Humidity;BMP_temperature;BMP_pressure;BME280_temperature;BME280_humidity;BME280_pressure;Samples;Min_cycle;Max_cycle;Signal;HPM_P1;HPM_P2
2021/06/24 00:04:08;;;;;;;20.23;7.05;;;25.10;75.70;;;;;;5059003;28;20052;-63
2021/06/24 00:06:34;;;;;;;19.58;6.70;;;25.10;75.60;;;;;;5059215;28;20033;-63
2021/06/24 00:09:00;;;;;;;19.27;7.18;;;25.10;75.90;;;;;;5048773;28;20092;-63
2021/06/24 00:11:25;;;;;;;20.15;6.57;;;25.10;75.20;;;;;;5062253;28;20361;-63
2021/06/24 00:13:51;;;;;;;22.30;6.43;;;25.10;75.10;;;;;;5072310;28;20214;-63
2021/06/24 00:16:17;;;;;;;17.98;6.28;;;25.10;74.70;;;;;;5060002;28;20040;-63
2021/06/24 00:18:42;;;;;;;20.98;6.45;;;25.00;74.70;;;;;;5062214;28;20017;-63
2021/06/24 00:21:08;;;;;;;18.08;6.65;;;25.00;74.80;;;;;;5061852;28;20049;-63
2021/06/24 00:23:34;;;;;;;19.38;6.93;;;25.00;75.00;;;;;;5061436;28;20033;-63
2021/06/24 00:26:01;;;;;;;19.60;7.40;;;25.00;74.80;;;;;;5062064;28;20045;-63
2021/06/24 00:28:28;;;;;;;19.85;6.00;;;25.00;74.70;;;;;;5060739;28;20025;-63
2021/06/24 00:30:56;;;;;;;17.67;6.00;;;25.00;74.60;;;;;;5061317;28;20483;-63
2021/06/24 00:33:21;;;;;;;21.05;6.60;;;25.00;74.40;;;;;;5061247;28;20025;-63
2021/06/24 00:35:47;;;;;;;18.95;6.13;;;25.00;75.00;;;;;;5061160;28;20396;-63
2021/06/24 00:38:14;;;;;;;22.40;6.75;;;25.00;75.30;;;;;;5061305;28;20516;-63
2021/06/24 00:40:42;;;;;;;21.90;6.75;;;25.00;75.50;;;;;;5044233;28;20030;-63
2021/06/24 00:43:13;;;;;;;18.85;6.38;;;24.90;75.20;;;;;;5041406;28;20037;-63
2021/06/24 00:45:40;;;;;;;18.45;6.22;;;24.90;75.10;;;;;;5049931;28;20021;-63
2021/06/24 00:48:07;;;;;;;19.50;6.68;;;24.80;75.00;;;;;;5056114;28;20112;-63
2021/06/24 00:50:34;;;;;;;23.08;7.28;;;24.80;74.90;;;;;;5054662;28;20051;-63
2021/06/24 00:53:00;;;;;;;19.77;6.50;;;24.80;74.50;;;;;;5073657;28;20383;-63
2021/06/24 00:55:45;;;;;;;17.33;5.80;;;24.80;74.70;;;;;;5060418;28;20036;-63
2021/06/24 00:58:22;;;;;;;27.20;6.15;;;24.80;74.30;;;;;;5060654;28;20039;-63
2021/06/24 01:00:52;;;;;;;22.98;6.30;;;24.80;74.30;;;;;;5041463;28;20465;-63
2021/06/24 01:03:18;;;;;;;21.58;5.82;;;24.80;74.10;;;;;;5041674;28;20463;-63
2021/06/24 01:05:44;;;;;;;20.95;5.50;;;24.80;74.40;;;;;;5053618;28;20370;-63
2021/06/24 01:08:14;;;;;;;11.45;5.53;;;24.80;74.40;;;;;;5061468;28;20021;-63
2021/06/24 01:10:41;;;;;;;20.42;5.63;;;24.80;74.40;;;;;;5056340;28;20421;-63
2021/06/24 01:13:06;;;;;;;17.50;6.03;;;24.80;74.80;;;;;;5060692;28;20457;-63
2021/06/24 01:15:32;;;;;;;15.43;6.15;;;24.70;75.00;;;;;;5060458;28;20045;-63
2021/06/24 01:17:59;;;;;;;14.52;6.05;;;24.80;75.40;;;;;;5061124;28;20379;-63
2021/06/24 01:20:27;;;;;;;19.25;6.15;;;24.70;75.30;;;;;;5053801;28;20033;-63
2021/06/24 01:22:53;;;;;;;18.65;6.00;;;24.70;75.50;;;;;;5022411;28;1113808;-63
2021/06/24 01:25:20;;;;;;;14.30;5.80;;;24.70;75.50;;;;;;5061135;28;20033;-63
2021/06/24 01:27:47;;;;;;;19.25;5.60;;;24.70;75.80;;;;;;5048757;28;20056;-63
2021/06/24 01:30:13;;;;;;;19.17;6.15;;;24.70;75.20;;;;;;5052962;28;20020;-63
2021/06/24 01:32:40;;;;;;;16.45;5.97;;;24.60;74.40;;;;;;5061751;28;20029;-63
2021/06/24 01:35:06;;;;;;;15.63;5.22;;;24.60;74.10;;;;;;5061574;28;20032;-63
2021/06/24 01:37:32;;;;;;;16.33;5.40;;;24.60;73.60;;;;;;5050870;28;20025;-63
2021/06/24 01:39:58;;;;;;;17.15;5.68;;;24.60;73.60;;;;;;5060048;28;20079;-63
2021/06/24 01:42:27;;;;;;;19.13;5.85;;;24.60;73.60;;;;;;5061324;28;20104;-63
2021/06/24 01:44:53;;;;;;;24.70;6.55;;;24.70;74.10;;;;;;5060949;28;20076;-63
2021/06/24 01:47:19;;;;;;;16.60;5.90;;;24.70;74.20;;;;;;5049522;28;20079;-63
2021/06/24 01:49:44;;;;;;;12.60;4.95;;;24.70;74.20;;;;;;5057133;28;20063;-63
2021/06/24 01:52:10;;;;;;;15.02;5.55;;;24.70;74.00;;;;;;5058950;28;20049;-63
2021/06/24 01:54:35;;;;;;;18.63;6.10;;;24.80;74.30;;;;;;5059503;28;20029;-63
2021/06/24 01:57:01;;;;;;;15.23;6.20;;;24.70;74.50;;;;;;5057067;28;20036;-63
2021/06/24 01:59:28;;;;;;;16.88;6.00;;;24.70;75.00;;;;;;5059809;28;20100;-63
2021/06/24 02:01:54;;;;;;;16.17;5.30;;;24.70;75.20;;;;;;5060587;28;20028;-63
2021/06/24 02:04:26;;;;;;;11.35;4.72;;;24.70;75.50;;;;;;5064312;28;20698;-63
2021/06/24 02:06:51;;;;;;;13.13;5.72;;;24.80;75.30;;;;;;5055757;28;20053;-63
2021/06/24 02:09:17;;;;;;;17.55;6.13;;;24.70;75.70;;;;;;5053353;28;20020;-63
2021/06/24 02:11:43;;;;;;;11.88;5.47;;;24.70;76.00;;;;;;5064509;28;20025;-63
2021/06/24 02:14:08;;;;;;;14.02;5.93;;;24.70;76.50;;;;;;5063235;28;20346;-63
2021/06/24 02:16:34;;;;;;;16.17;5.80;;;24.70;76.80;;;;;;5061018;28;20056;-63
2021/06/24 02:19:00;;;;;;;14.30;5.90;;;24.70;76.80;;;;;;5054015;28;20100;-63
2021/06/24 02:21:25;;;;;;;15.88;7.05;;;24.70;76.80;;;;;;5051670;28;20111;-63
2021/06/24 02:23:51;;;;;;;16.83;5.50;;;24.70;76.80;;;;;;5060692;28;20070;-63
2021/06/24 02:26:17;;;;;;;17.50;6.18;;;24.70;76.90;;;;;;5061587;28;20117;-63
2021/06/24 02:28:42;;;;;;;17.48;5.32;;;24.70;76.60;;;;;;5052976;28;20029;-63
2021/06/24 02:31:08;;;;;;;13.43;5.40;;;24.70;76.40;;;;;;5060303;28;20029;-63
2021/06/24 02:33:34;;;;;;;15.45;5.88;;;24.70;76.00;;;;;;5061006;28;20029;-63
2021/06/24 02:36:00;;;;;;;20.13;6.68;;;24.70;76.00;;;;;;5048641;28;20025;-63
2021/06/24 02:38:26;;;;;;;19.80;5.78;;;24.70;76.00;;;;;;5060151;28;20017;-63
2021/06/24 02:40:52;;;;;;;13.18;5.60;;;24.70;76.20;;;;;;5059720;28;20024;-63
2021/06/24 02:43:18;;;;;;;16.60;6.43;;;24.70;76.20;;;;;;5061281;28;20048;-63
2021/06/24 02:45:44;;;;;;;12.90;5.78;;;24.80;76.90;;;;;;5053180;28;20029;-63
2021/06/24 02:48:10;;;;;;;14.57;5.97;;;24.80;76.30;;;;;;5060566;28;20047;-63
2021/06/24 02:50:36;;;;;;;17.02;6.10;;;24.80;76.30;;;;;;5059107;28;20416;-63
2021/06/24 02:53:02;;;;;;;17.23;6.50;;;24.90;76.70;;;;;;5060938;28;20021;-63
2021/06/24 02:55:30;;;;;;;17.73;6.53;;;24.90;77.20;;;;;;5061045;28;20062;-63
2021/06/24 02:57:58;;;;;;;18.15;6.93;;;25.00;77.70;;;;;;5046061;28;20056;-63
2021/06/24 03:00:24;;;;;;;20.75;6.00;;;25.00;78.00;;;;;;5054110;28;20030;-63
2021/06/24 03:02:51;;;;;;;16.23;6.75;;;25.00;77.90;;;;;;5048434;28;20036;-63
2021/06/24 03:05:16;;;;;;;16.13;6.43;;;25.10;78.00;;;;;;5050281;28;20230;-63
2021/06/24 03:07:42;;;;;;;14.48;6.20;;;25.20;78.00;;;;;;5060678;28;20326;-63
2021/06/24 03:10:10;;;;;;;20.40;6.55;;;25.20;77.90;;;;;;5075232;28;20025;-63
2021/06/24 03:12:35;;;;;;;15.13;6.30;;;25.20;78.00;;;;;;5072027;28;20029;-63
2021/06/24 03:15:02;;;;;;;16.15;6.45;;;25.30;78.40;;;;;;5059141;28;20071;-63
2021/06/24 03:17:28;;;;;;;14.93;6.57;;;25.30;78.50;;;;;;5055625;28;20085;-63
2021/06/24 03:19:53;;;;;;;19.10;6.85;;;25.40;78.80;;;;;;5058984;28;20612;-63
2021/06/24 03:22:19;;;;;;;14.55;6.60;;;25.50;79.00;;;;;;5058414;28;20057;-63
2021/06/24 03:24:45;;;;;;;18.58;8.05;;;25.50;79.50;;;;;;5059028;28;20477;-63
2021/06/24 03:27:11;;;;;;;18.63;8.07;;;25.60;79.60;;;;;;5058782;28;20397;-63
2021/06/24 03:29:36;;;;;;;18.13;7.90;;;25.60;79.60;;;;;;5047358;28;20026;-63
2021/06/24 03:32:03;;;;;;;16.65;7.15;;;25.70;79.80;;;;;;5053187;28;20033;-63
2021/06/24 03:34:29;;;;;;;15.73;7.13;;;25.70;79.80;;;;;;5057543;28;20025;-63
2021/06/24 03:36:54;;;;;;;19.98;7.25;;;25.80;80.10;;;;;;5052832;28;20146;-63
2021/06/24 03:39:20;;;;;;;17.52;7.25;;;25.80;80.20;;;;;;5065987;28;20035;-63
2021/06/24 03:41:46;;;;;;;15.45;6.55;;;26.00;79.80;;;;;;5063265;28;20056;-63
2021/06/24 03:44:11;;;;;;;21.08;6.78;;;26.10;79.30;;;;;;5056910;28;20047;-63
2021/06/24 03:46:37;;;;;;;21.70;7.10;;;26.40;78.90;;;;;;5053618;28;20029;-63
2021/06/24 03:49:04;;;;;;;15.23;6.85;;;26.60;78.20;;;;;;5058100;28;20056;-63
2021/06/24 03:51:30;;;;;;;17.67;7.13;;;26.80;77.80;;;;;;5058279;28;20024;-63
2021/06/24 03:53:57;;;;;;;15.20;7.10;;;27.10;77.30;;;;;;5046372;28;20462;-63
2021/06/24 03:56:22;;;;;;;16.73;7.82;;;27.40;76.40;;;;;;5059887;28;20025;-63
2021/06/24 03:58:48;;;;;;;19.42;7.25;;;27.70;75.70;;;;;;5049515;28;20035;-63
2021/06/24 04:01:14;;;;;;;19.30;6.70;;;28.10;74.80;;;;;;5058232;28;20040;-63
2021/06/24 04:03:39;;;;;;;19.85;7.25;;;28.40;73.90;;;;;;5058365;28;20104;-63
2021/06/24 04:06:06;;;;;;;16.00;6.43;;;28.80;72.80;;;;;;5058572;28;20029;-63
2021/06/24 04:08:32;;;;;;;14.95;5.47;;;29.10;71.90;;;;;;5056160;28;20021;-63
2021/06/24 04:10:58;;;;;;;18.65;6.70;;;29.40;71.00;;;;;;5045960;28;20075;-63
2021/06/24 04:13:24;;;;;;;14.48;6.75;;;29.70;70.00;;;;;;5052181;28;20029;-63
2021/06/24 04:15:49;;;;;;;14.55;6.47;;;30.00;69.00;;;;;;5061985;28;20029;-63
2021/06/24 04:18:15;;;;;;;14.95;5.43;;;30.30;68.20;;;;;;5042140;28;20025;-63
2021/06/24 04:20:41;;;;;;;13.23;6.60;;;30.50;67.10;;;;;;5061999;28;20110;-63
2021/06/24 04:23:07;;;;;;;16.33;6.32;;;30.70;66.10;;;;;;5060892;28;20069;-63
2021/06/24 04:25:33;;;;;;;17.00;6.68;;;30.80;65.00;;;;;;5051083;28;20081;-63
2021/06/24 04:28:00;;;;;;;20.95;6.30;;;31.00;64.30;;;;;;5042431;28;20030;-63
2021/06/24 04:30:27;;;;;;;13.52;5.38;;;31.10;63.80;;;;;;5059889;28;20104;-63
2021/06/24 04:32:53;;;;;;;14.23;6.38;;;31.20;63.20;;;;;;5078854;28;20376;-63
2021/06/24 04:35:19;;;;;;;14.55;5.85;;;31.20;62.60;;;;;;5070884;28;20025;-63
2021/06/24 04:37:44;;;;;;;17.35;6.00;;;31.30;62.10;;;;;;5061924;28;20044;-63
2021/06/24 04:40:11;;;;;;;17.85;6.55;;;31.40;61.80;;;;;;5061620;28;20147;-63
2021/06/24 04:42:37;;;;;;;13.50;5.65;;;31.50;61.40;;;;;;5061596;28;20033;-63
2021/06/24 04:45:04;;;;;;;15.25;6.57;;;31.80;61.10;;;;;;5059722;28;20526;-63
2021/06/24 04:47:30;;;;;;;15.50;5.97;;;32.10;60.50;;;;;;5061285;28;20048;-63
2021/06/24 04:49:56;;;;;;;17.35;6.35;;;32.40;60.20;;;;;;5061682;28;20025;-63
2021/06/24 04:52:21;;;;;;;14.27;5.70;;;32.70;59.70;;;;;;5044799;28;20029;-63
2021/06/24 04:54:47;;;;;;;13.70;5.93;;;33.00;59.20;;;;;;5060312;28;20021;-63
2021/06/24 04:57:13;;;;;;;17.27;6.70;;;33.30;58.70;;;;;;5069899;28;20071;-63
2021/06/24 04:59:38;;;;;;;19.83;6.82;;;33.60;58.20;;;;;;5068774;28;20021;-63
2021/06/24 05:02:04;;;;;;;14.48;6.05;;;33.80;57.50;;;;;;5065068;28;20477;-63
2021/06/24 05:04:30;;;;;;;14.20;5.95;;;34.00;56.90;;;;;;5059055;28;20068;-63
2021/06/24 05:07:00;;;;;;;15.38;6.65;;;34.30;56.40;;;;;;5060437;28;20077;-63
2021/06/24 05:09:28;;;;;;;14.80;6.03;;;34.60;56.50;;;;;;5060365;28;20025;-63
2021/06/24 05:11:53;;;;;;;20.00;7.13;;;34.90;55.60;;;;;;5050585;28;20025;-63
2021/06/24 05:14:19;;;;;;;17.98;6.40;;;35.20;54.90;;;;;;5058404;28;20088;-63
2021/06/24 05:16:45;;;;;;;17.42;5.72;;;35.50;54.20;;;;;;5043153;28;20092;-63
2021/06/24 05:19:11;;;;;;;16.75;6.05;;;35.60;53.60;;;;;;5057003;28;20029;-63
2021/06/24 05:21:38;;;;;;;13.27;6.28;;;35.80;53.00;;;;;;5052661;28;20139;-63
2021/06/24 05:24:05;;;;;;;16.30;6.03;;;35.90;52.40;;;;;;5065995;28;20036;-63
2021/06/24 05:26:31;;;;;;;13.13;5.80;;;35.80;52.00;;;;;;5052274;28;20036;-63
2021/06/24 05:28:57;;;;;;;20.58;6.20;;;35.60;51.80;;;;;;5050725;28;20025;-63
2021/06/24 05:31:22;;;;;;;15.75;5.65;;;35.20;52.00;;;;;;5046607;28;20021;-63
2021/06/24 05:33:49;;;;;;;18.75;5.72;;;34.70;52.50;;;;;;5054398;28;20025;-63
2021/06/24 05:36:15;;;;;;;15.02;6.20;;;34.20;53.20;;;;;;5054378;28;20025;-63
2021/06/24 05:38:40;;;;;;;17.52;5.68;;;33.70;53.90;;;;;;5056834;28;20037;-63
2021/06/24 05:41:06;;;;;;;15.70;6.15;;;33.30;54.80;;;;;;5048380;28;20601;-63
2021/06/24 05:43:31;;;;;;;17.27;6.13;;;32.90;55.50;;;;;;5049222;28;20560;-63
2021/06/24 05:45:57;;;;;;;17.83;6.88;;;32.60;56.00;;;;;;5049768;28;20035;-63
2021/06/24 05:48:23;;;;;;;18.25;6.60;;;32.30;56.40;;;;;;5048931;28;20037;-63
2021/06/24 05:50:49;;;;;;;15.18;6.78;;;32.00;56.70;;;;;;5046387;28;20060;-63
2021/06/24 05:53:14;;;;;;;19.05;6.90;;;31.80;57.30;;;;;;5043891;28;20045;-65
2021/06/24 05:55:52;;;;;;;14.32;6.05;;;31.60;57.80;;;;;;5045737;28;20144;-64
2021/06/24 05:58:25;;;;;;;12.85;5.95;;;31.50;58.00;;;;;;5046261;28;20051;-64
2021/06/24 06:00:53;;;;;;;14.80;6.32;;;31.30;58.20;;;;;;5041507;28;20036;-64
2021/06/24 06:03:20;;;;;;;15.73;6.90;;;31.20;58.50;;;;;;5039854;28;20120;-64
2021/06/24 06:05:47;;;;;;;14.43;5.97;;;31.20;58.80;;;;;;5048406;28;20028;-64
2021/06/24 06:08:13;;;;;;;13.90;6.50;;;31.10;58.90;;;;;;5046318;28;20063;-64
2021/06/24 06:10:40;;;;;;;13.60;5.63;;;31.00;59.00;;;;;;5049043;28;20020;-63
2021/06/24 06:13:07;;;;;;;17.02;6.40;;;31.00;59.10;;;;;;5044419;28;20051;-64
2021/06/24 06:15:38;;;;;;;14.73;6.15;;;31.00;59.30;;;;;;5044583;28;20045;-64
2021/06/24 06:18:18;;;;;;;14.70;6.30;;;30.90;59.30;;;;;;5046149;28;20495;-63
2021/06/24 06:20:45;;;;;;;14.40;5.60;;;30.90;59.50;;;;;;5041180;28;20053;-64
2021/06/24 06:23:16;;;;;;;12.32;6.32;;;30.80;59.60;;;;;;5043335;28;20045;-64
2021/06/24 06:25:44;;;;;;;;;;;30.70;59.90;;;;;;5040476;28;20028;-64
2021/06/24 06:28:10;;;;;;;17.95;7.07;;;30.60;60.40;;;;;;5042283;28;20023;-64
2021/06/24 06:30:36;;;;;;;14.05;5.88;;;30.60;60.70;;;;;;5043439;28;20115;-64
2021/06/24 06:33:02;;;;;;;14.95;6.32;;;30.60;61.10;;;;;;5048113;28;20017;-65
2021/06/24 06:35:28;;;;;;;19.63;7.35;;;30.50;61.10;;;;;;5050618;28;20017;-64
2021/06/24 06:37:54;;;;;;;14.73;6.57;;;30.50;61.00;;;;;;5039011;28;20032;-64
2021/06/24 06:40:19;;;;;;;12.10;6.22;;;30.40;61.10;;;;;;5039047;28;20025;-63
2021/06/24 06:42:47;;;;;;;17.52;6.97;;;30.40;61.20;;;;;;5043907;28;20029;-63
2021/06/24 06:45:13;;;;;;;15.50;6.68;;;30.30;61.70;;;;;;5045594;28;20037;-63
2021/06/24 06:47:39;;;;;;;13.73;6.55;;;30.30;62.00;;;;;;5043429;28;20033;-63
2021/06/24 06:50:05;;;;;;;13.40;6.50;;;30.30;62.00;;;;;;5047478;28;20029;-64
2021/06/24 06:52:31;;;;;;;19.85;7.22;;;30.20;62.10;;;;;;5038576;28;20697;-63
2021/06/24 06:54:57;;;;;;;14.63;6.57;;;30.20;62.00;;;;;;5036599;28;20052;-64
2021/06/24 06:57:22;;;;;;;21.02;6.90;;;30.20;61.80;;;;;;5041571;28;20025;-64
2021/06/24 06:59:48;;;;;;;13.68;6.70;;;30.10;62.00;;;;;;5039260;28;21487;-64
2021/06/24 07:02:14;;;;;;;13.88;6.65;;;30.00;62.30;;;;;;5034470;28;20040;-64
2021/06/24 07:04:39;;;;;;;13.02;6.40;;;29.90;62.60;;;;;;5035401;28;20032;-65
2021/06/24 07:07:05;;;;;;;13.85;6.63;;;29.90;62.90;;;;;;5036524;28;20487;-65
2021/06/24 07:09:31;;;;;;;16.00;6.90;;;29.80;63.10;;;;;;5027149;28;20052;-65
2021/06/24 07:11:57;;;;;;;15.40;6.78;;;29.70;63.80;;;;;;5029400;28;20061;-64
2021/06/24 07:14:23;;;;;;;14.68;6.70;;;29.70;64.50;;;;;;5034443;28;20749;-64
2021/06/24 07:16:48;;;;;;;14.77;6.30;;;29.70;64.70;;;;;;5033689;28;20041;-66
2021/06/24 07:19:14;;;;;;;12.40;7.13;;;29.70;64.80;;;;;;5029670;28;20037;-64
2021/06/24 07:21:40;;;;;;;14.85;6.63;;;29.70;64.90;;;;;;5032093;28;20053;-65
2021/06/24 07:24:07;;;;;;;20.17;7.75;;;29.80;64.80;;;;;;5031472;28;20044;-64
2021/06/24 07:26:33;;;;;;;21.30;7.88;;;29.80;64.80;;;;;;5022927;28;21658;-65
2021/06/24 07:28:59;;;;;;;15.63;6.55;;;29.90;64.60;;;;;;5019973;28;20029;-63
2021/06/24 07:31:24;;;;;;;19.73;7.80;;;29.90;64.20;;;;;;5025299;28;20033;-63
2021/06/24 07:33:50;;;;;;;17.27;7.60;;;29.90;64.20;;;;;;5026594;28;20497;-64
2021/06/24 07:36:16;;;;;;;21.45;7.15;;;29.90;64.40;;;;;;5031462;28;20021;-64
2021/06/24 07:38:41;;;;;;;15.45;6.55;;;30.00;63.90;;;;;;5030839;28;20051;-63
2021/06/24 07:41:07;;;;;;;10.85;5.95;;;30.00;63.90;;;;;;5023871;28;20041;-64
2021/06/24 07:43:33;;;;;;;10.32;6.13;;;30.00;63.50;;;;;;5019326;28;20130;-64
2021/06/24 07:45:59;;;;;;;16.60;6.43;;;30.10;63.40;;;;;;5023338;28;20777;-62
2021/06/24 07:48:24;;;;;;;14.98;6.15;;;30.10;63.40;;;;;;5031210;28;20026;-63
2021/06/24 07:50:50;;;;;;;14.70;6.03;;;30.10;63.20;;;;;;5031442;28;20088;-64
2021/06/24 07:53:16;;;;;;;12.68;6.70;;;30.20;63.20;;;;;;5031737;28;20091;-63
2021/06/24 07:55:41;;;;;;;13.48;5.65;;;30.20;63.30;;;;;;5033258;28;20033;-63
2021/06/24 07:58:08;;;;;;;13.63;6.85;;;30.20;63.80;;;;;;5037063;28;20036;-63
2021/06/24 08:00:36;;;;;;;13.20;5.97;;;30.20;63.20;;;;;;5037931;28;20078;-64
2021/06/24 08:03:03;;;;;;;13.95;6.57;;;30.20;63.50;;;;;;5034754;28;20394;-65
2021/06/24 08:05:29;;;;;;;17.70;6.43;;;30.20;63.60;;;;;;5034825;28;20037;-63
2021/06/24 08:07:55;;;;;;;16.65;6.57;;;30.20;63.90;;;;;;5034848;28;20029;-63
2021/06/24 08:10:22;;;;;;;17.50;7.15;;;30.20;64.00;;;;;;5036380;28;20083;-64
2021/06/24 08:12:49;;;;;;;21.65;6.50;;;30.30;64.40;;;;;;5034405;28;20079;-64
2021/06/24 08:15:17;;;;;;;15.77;6.32;;;30.30;64.50;;;;;;5027124;28;20547;-64
2021/06/24 08:17:45;;;;;;;11.50;5.75;;;30.30;64.40;;;;;;5035937;28;20043;-63
2021/06/24 08:20:12;;;;;;;14.88;6.05;;;30.30;64.30;;;;;;5031111;28;20044;-63
2021/06/24 08:22:38;;;;;;;10.48;5.40;;;30.30;64.40;;;;;;5033332;28;20506;-63
2021/06/24 08:25:05;;;;;;;13.15;5.55;;;30.30;65.10;;;;;;5036987;28;20040;-62
2021/06/24 08:27:31;;;;;;;12.43;5.38;;;30.30;65.20;;;;;;5037590;28;20084;-63
2021/06/24 08:29:57;;;;;;;14.05;6.35;;;30.30;65.30;;;;;;5034787;28;20112;-63
2021/06/24 08:32:24;;;;;;;13.57;5.57;;;30.30;65.50;;;;;;5032186;28;20033;-63
2021/06/24 08:34:50;;;;;;;13.77;5.72;;;30.30;65.70;;;;;;5025586;28;20056;-64
2021/06/24 08:37:16;;;;;;;10.23;5.60;;;30.20;65.60;;;;;;5032406;28;20087;-65
2021/06/24 08:39:43;;;;;;;12.63;5.65;;;30.20;65.80;;;;;;5029973;28;20030;-64
2021/06/24 08:42:09;;;;;;;14.75;5.70;;;30.20;66.20;;;;;;5028635;28;20392;-64
2021/06/24 08:44:35;;;;;;;13.75;5.53;;;30.20;66.40;;;;;;5024172;28;20112;-64
2021/06/24 08:47:02;;;;;;;9.90;5.30;;;30.20;66.00;;;;;;5022964;28;20047;-63
2021/06/24 08:49:28;;;;;;;13.38;5.75;;;30.20;65.80;;;;;;5025187;28;20028;-63
2021/06/24 08:51:55;;;;;;;11.98;5.57;;;30.20;65.80;;;;;;5029212;28;20029;-63
2021/06/24 08:54:21;;;;;;;9.27;5.28;;;30.20;65.70;;;;;;5031306;28;21941;-63
2021/06/24 08:56:48;;;;;;;10.68;5.07;;;30.20;65.70;;;;;;5029259;28;20136;-64
2021/06/24 08:59:14;;;;;;;14.13;5.40;;;30.20;65.50;;;;;;5027022;28;20612;-64
2021/06/24 09:01:52;;;;;;;14.00;5.70;;;30.20;65.50;;;;;;5025653;28;20740;-65
2021/06/24 09:04:20;;;;;;;14.15;5.47;;;30.20;65.70;;;;;;5031999;28;20112;-64
2021/06/24 09:06:48;;;;;;;15.90;6.03;;;30.20;65.80;;;;;;5028486;28;20052;-63
2021/06/24 09:09:28;;;;;;;10.15;5.22;;;30.20;65.90;;;;;;5018199;28;20091;-63
2021/06/24 09:12:08;;;;;;;12.07;4.63;;;30.20;65.70;;;;;;5020820;28;20033;-63
2021/06/24 09:14:43;;;;;;;14.50;5.70;;;30.20;65.70;;;;;;5039420;28;20037;-63
2021/06/24 09:17:10;;;;;;;8.50;4.55;;;30.10;65.80;;;;;;5025586;28;20036;-64
2021/06/24 09:19:42;;;;;;;15.07;5.70;;;30.10;65.80;;;;;;5026140;28;20037;-64
2021/06/24 09:22:12;;;;;;;9.73;5.00;;;30.10;65.80;;;;;;5028235;28;20041;-64
2021/06/24 09:24:43;;;;;;;11.05;5.00;;;30.10;66.00;;;;;;5024095;28;20039;-65
2021/06/24 09:27:18;;;;;;;13.30;5.43;;;30.10;65.80;;;;;;5031651;28;20077;-64
2021/06/24 09:30:03;;;;;;;9.40;4.57;;;30.10;65.80;;;;;;5033495;28;20025;-64
2021/06/24 09:32:34;;;;;;;10.52;5.28;;;30.10;65.90;;;;;;5029441;28;20032;-64
2021/06/24 09:35:02;;;;;;;10.05;5.25;;;30.10;65.60;;;;;;5030226;28;20455;-64
2021/06/24 09:37:54;;;;;;;9.77;4.97;;;30.10;65.60;;;;;;5031872;28;20033;-64
2021/06/24 09:40:20;;;;;;;10.35;4.90;;;30.10;65.50;;;;;;5034878;28;20072;-64
2021/06/24 09:42:46;;;;;;;13.73;5.70;;;30.10;65.00;;;;;;5030246;28;20040;-64
2021/06/24 09:45:12;;;;;;;11.77;5.70;;;30.10;64.60;;;;;;5025466;28;20040;-64
2021/06/24 09:47:38;;;;;;;12.90;5.25;;;30.10;64.40;;;;;;5028132;28;20095;-64
2021/06/24 09:50:07;;;;;;;11.70;5.45;;;30.10;64.80;;;;;;5027972;28;20078;-64
2021/06/24 09:52:34;;;;;;;11.38;5.05;;;30.10;65.00;;;;;;5028252;28;20033;-64
2021/06/24 09:55:04;;;;;;;10.82;4.93;;;30.10;65.00;;;;;;5030073;28;20607;-62
2021/06/24 09:57:30;;;;;;;9.93;4.80;;;30.10;64.80;;;;;;5035737;28;20105;-63
2021/06/24 09:59:56;;;;;;;11.25;4.90;;;30.10;65.10;;;;;;5026213;28;20068;-64
2021/06/24 10:02:21;;;;;;;14.27;4.68;;;30.10;65.00;;;;;;5022181;28;20132;-63
2021/06/24 10:04:48;;;;;;;9.68;4.60;;;30.10;64.70;;;;;;5031596;28;20068;-64
2021/06/24 10:07:20;;;;;;;10.63;4.88;;;30.10;64.40;;;;;;5028940;28;20032;-64
2021/06/24 10:09:47;;;;;;;9.10;4.72;;;30.10;64.70;;;;;;5033586;28;20118;-63
2021/06/24 10:12:18;;;;;;;10.07;4.75;;;30.10;64.80;;;;;;5028261;28;20028;-64
2021/06/24 10:14:45;;;;;;;10.38;4.95;;;30.10;64.80;;;;;;5027209;28;20054;-63
2021/06/24 10:17:10;;;;;;;10.40;4.75;;;30.10;65.20;;;;;;5026057;28;20036;-64
2021/06/24 10:19:42;;;;;;;10.65;4.63;;;30.10;65.00;;;;;;5023925;28;20033;-64
2021/06/24 10:22:13;;;;;;;10.07;4.97;;;30.10;65.10;;;;;;5028988;28;20041;-64
2021/06/24 10:24:55;;;;;;;10.93;5.30;;;30.10;65.60;;;;;;5030631;28;20848;-64
2021/06/24 10:27:24;;;;;;;13.95;5.00;;;30.10;65.70;;;;;;5026900;28;20106;-64
2021/06/24 10:29:52;;;;;;;11.63;5.00;;;30.00;66.30;;;;;;5026554;28;20036;-63
2021/06/24 10:32:56;;;;;;;11.15;5.18;;;30.00;66.90;;;;;;5025313;28;20119;-64
2021/06/24 10:35:36;;;;;;;9.30;4.78;;;30.10;67.50;;;;;;5022771;28;20172;-64
2021/06/24 10:38:03;;;;;;;9.60;4.43;;;30.00;67.80;;;;;;5021932;28;20044;-64
2021/06/24 10:40:34;;;;;;;10.10;4.38;;;30.00;67.90;;;;;;5030840;28;20040;-63
2021/06/24 10:43:10;;;;;;;9.65;4.28;;;30.00;67.60;;;;;;5032906;28;20033;-63
2021/06/24 10:45:37;;;;;;;7.72;4.05;;;30.00;66.80;;;;;;5031391;28;20033;-63
2021/06/24 10:48:26;;;;;;;8.27;4.47;;;30.00;66.60;;;;;;5030290;28;20040;-63
2021/06/24 10:50:59;;;;;;;13.52;4.90;;;30.00;67.10;;;;;;5025404;28;20043;-63
2021/06/24 10:53:24;;;;;;;11.90;4.50;;;30.10;67.50;;;;;;5021762;28;20469;-63
2021/06/24 10:55:50;;;;;;;11.07;4.75;;;30.10;67.80;;;;;;5025841;28;20040;-63
2021/06/24 10:58:19;;;;;;;8.80;4.50;;;30.10;67.90;;;;;;5023856;28;20783;-63
2021/06/24 11:00:52;;;;;;;11.07;4.57;;;30.10;68.00;;;;;;5026740;28;20025;-63
2021/06/24 11:03:41;;;;;;;12.48;4.57;;;30.10;68.60;;;;;;5026560;28;20858;-63
2021/06/24 11:06:24;;;;;;;18.13;4.72;;;30.10;68.60;;;;;;5025730;28;20480;-63
2021/06/24 11:09:14;;;;;;;11.40;4.82;;;30.10;69.10;;;;;;5028474;28;20040;-63
2021/06/24 11:11:42;;;;;;;11.13;4.47;;;30.10;69.30;;;;;;5024904;28;20509;-63
2021/06/24 11:14:08;;;;;;;14.35;4.70;;;30.10;68.50;;;;;;5024469;28;20033;-64
2021/06/24 11:16:35;;;;;;;10.73;5.57;;;30.10;68.60;;;;;;5025103;28;20033;-63
2021/06/24 11:19:05;;;;;;;10.55;5.10;;;30.10;69.00;;;;;;5027042;28;20091;-63
2021/06/24 11:21:31;;;;;;;11.90;5.45;;;30.10;68.40;;;;;;5029766;28;21114;-64
2021/06/24 11:24:06;;;;;;;13.05;4.90;;;30.10;67.90;;;;;;5033671;28;20048;-64
2021/06/24 11:26:35;;;;;;;12.80;5.50;;;30.10;68.50;;;;;;5030240;28;20080;-63
2021/06/24 11:29:37;;;;;;;10.25;4.45;;;30.10;68.60;;;;;;5028866;28;20120;-64
2021/06/24 11:32:12;;;;;;;21.10;5.55;;;30.10;68.20;;;;;;5029812;28;20060;-63
2021/06/24 11:34:55;;;;;;;13.13;4.63;;;30.00;68.10;;;;;;5024368;28;20110;-63
2021/06/24 11:37:28;;;;;;;13.05;4.72;;;30.10;67.80;;;;;;5031047;28;20044;-63
2021/06/24 11:39:57;;;;;;;13.73;4.88;;;30.10;67.60;;;;;;5032949;28;20033;-64
2021/06/24 11:42:31;;;;;;;13.52;5.05;;;30.10;67.40;;;;;;5031403;28;20520;-64
2021/06/24 11:44:57;;;;;;;13.30;5.13;;;30.10;67.20;;;;;;5030884;28;20028;-64
2021/06/24 11:47:34;;;;;;;20.45;4.90;;;30.10;66.30;;;;;;5033802;28;20661;-64
2021/06/24 12:04:03;;;;;;;14.97;5.20;;;30.10;67.90;;;;;;5041521;28;20032;-64
2021/06/24 12:06:40;;;;;;;;;;;30.10;67.50;;;;;;5038542;28;20108;-64
2021/06/24 12:09:06;;;;;;;13.88;5.32;;;30.00;67.50;;;;;;5036132;28;19959;-64
2021/06/24 12:11:34;;;;;;;13.43;4.32;;;30.00;67.70;;;;;;5030394;28;20032;-63
2021/06/24 12:14:14;;;;;;;14.20;5.53;;;30.00;67.40;;;;;;5035368;28;20692;-64
2021/06/24 12:16:40;;;;;;;15.50;5.50;;;30.00;67.70;;;;;;5029780;28;20060;-63
2021/06/24 12:19:06;;;;;;;19.92;5.90;;;30.00;67.50;;;;;;5034703;28;20060;-63
2021/06/24 12:21:31;;;;;;;13.07;4.75;;;30.00;67.80;;;;;;5030893;28;20061;-63
2021/06/24 12:23:57;;;;;;;13.23;5.07;;;30.10;67.10;;;;;;5035467;28;20032;-64
2021/06/24 12:26:23;;;;;;;10.98;4.32;;;30.10;66.90;;;;;;5038155;28;20140;-64
2021/06/24 12:28:48;;;;;;;10.70;4.40;;;30.10;66.60;;;;;;5039653;28;20086;-64
2021/06/24 12:31:24;;;;;;;14.52;5.03;;;30.10;66.50;;;;;;5032843;28;20171;-64
2021/06/24 12:34:03;;;;;;;10.68;4.88;;;30.10;66.30;;;;;;5034346;28;20025;-63
2021/06/24 12:36:33;;;;;;;17.75;4.50;;;30.20;66.40;;;;;;5034093;28;20021;-63
2021/06/24 12:38:59;;;;;;;14.35;5.20;;;30.20;66.40;;;;;;5035652;28;20110;-62
2021/06/24 12:41:28;;;;;;;12.75;5.00;;;30.20;66.20;;;;;;5031744;28;20548;-63
2021/06/24 12:44:02;;;;;;;12.48;5.15;;;30.20;65.70;;;;;;5038412;28;20017;-63
2021/06/24 12:46:32;;;;;;;12.63;5.32;;;30.20;66.30;;;;;;5038380;28;20033;-64
2021/06/24 12:49:02;;;;;;;9.70;4.37;;;30.20;65.60;;;;;;5042825;28;21708;-64
2021/06/24 12:51:28;;;;;;;12.68;4.32;;;30.20;65.90;;;;;;5040636;28;20282;-63
2021/06/24 12:53:54;;;;;;;12.55;5.10;;;30.20;66.50;;;;;;5038882;28;20076;-63
2021/06/24 12:56:23;;;;;;;12.13;5.55;;;30.30;67.10;;;;;;5038981;28;20021;-63
2021/06/24 12:58:49;;;;;;;13.30;4.75;;;30.30;67.30;;;;;;5035397;28;20038;-64